sensor_id;sensor_type;location;lat;lon;timestamp;P1;durP1;ratioP1;P2;durP2;ratioP2
76540;SDS011;65385;55.772;37.658;2023-04-01T00:00:08;23.20;;;10.70;;
76540;SDS011;65385;55.772;37.658;2023-04-01T00:01:13;23.02;;;11.63;;
76540;SDS011;65385;55.772;37.658;2023-04-01T00:02:14;22.30;;;10.95;;
76540;SDS011;65385;55.772;37.658;2023-04-01T00:03:15;24.33;;;11.35;;
76540;SDS011;65385;55.772;37.658;2023-04-01T00:04:16;23.58;;;10.50;;
76540;SDS011;65385;55.772;37.658;2023-04-01T00:05:17;24.02;;;10.82;;
76540;SDS011;65385;55.772;37.658;2023-04-01T00:06:17;26.35;;;12.93;;
76540;SDS011;65385;55.772;37.658;2023-04-01T00:07:19;25.75;;;11.45;;
76540;SDS011;65385;55.772;37.658;2023-04-01T00:08:19;25.20;;;11.88;;
76540;SDS011;65385;55.772;37.658;2023-04-01T00:09:20;23.25;;;11.20;;
76540;SDS011;65385;55.772;37.658;2023-04-01T00:10:21;26.42;;;12.98;;
76540;SDS011;65385;55.772;37.658;2023-04-01T00:11:22;23.33;;;11.93;;
76540;SDS011;65385;55.772;37.658;2023-04-01T00:12:22;25.48;;;12.43;;
76540;SDS011;65385;55.772;37.658;2023-04-01T00:13:25;25.38;;;11.73;;
76540;SDS011;65385;55.772;37.658;2023-04-01T00:14:26;25.10;;;11.73;;
76540;SDS011;65385;55.772;37.658;2023-04-01T00:15:27;24.98;;;12.30;;
76540;SDS011;65385;55.772;37.658;2023-04-01T00:16:27;24.77;;;11.93;;
76540;SDS011;65385;55.772;37.658;2023-04-01T00:17:28;27.85;;;13.02;;
76540;SDS011;65385;55.772;37.658;2023-04-01T00:18:29;25.15;;;12.40;;
76540;SDS011;65385;55.772;37.658;2023-04-01T00:19:30;26.40;;;11.80;;
76540;SDS011;65385;55.772;37.658;2023-04-01T00:20:32;22.35;;;10.52;;
76540;SDS011;65385;55.772;37.658;2023-04-01T00:21:33;24.38;;;11.93;;
76540;SDS011;65385;55.772;37.658;2023-04-01T00:22:34;23.40;;;11.63;;
76540;SDS011;65385;55.772;37.658;2023-04-01T00:23:35;28.55;;;11.82;;
76540;SDS011;65385;55.772;37.658;2023-04-01T00:24:36;20.65;;;11.15;;
76540;SDS011;65385;55.772;37.658;2023-04-01T00:25:37;23.50;;;11.60;;
76540;SDS011;65385;55.772;37.658;2023-04-01T00:26:37;22.58;;;11.40;;
76540;SDS011;65385;55.772;37.658;2023-04-01T00:27:38;26.45;;;11.43;;
76540;SDS011;65385;55.772;37.658;2023-04-01T00:28:39;24.02;;;11.02;;
76540;SDS011;65385;55.772;37.658;2023-04-01T00:29:43;27.42;;;11.23;;
76540;SDS011;65385;55.772;37.658;2023-04-01T00:30:45;25.48;;;11.65;;
76540;SDS011;65385;55.772;37.658;2023-04-01T00:31:46;25.35;;;11.55;;
76540;SDS011;65385;55.772;37.658;2023-04-01T00:32:47;23.00;;;12.30;;
76540;SDS011;65385;55.772;37.658;2023-04-01T00:33:51;28.45;;;12.18;;
76540;SDS011;65385;55.772;37.658;2023-04-01T00:34:52;24.55;;;11.73;;
76540;SDS011;65385;55.772;37.658;2023-04-01T00:35:53;22.95;;;12.25;;
76540;SDS011;65385;55.772;37.658;2023-04-01T00:36:54;25.45;;;11.38;;
76540;SDS011;65385;55.772;37.658;2023-04-01T00:37:54;25.02;;;11.10;;
76540;SDS011;65385;55.772;37.658;2023-04-01T00:38:56;24.42;;;12.40;;
76540;SDS011;65385;55.772;37.658;2023-04-01T00:39:59;25.75;;;11.70;;
76540;SDS011;65385;55.772;37.658;2023-04-01T00:40:59;22.35;;;11.57;;
76540;SDS011;65385;55.772;37.658;2023-04-01T00:42:00;27.95;;;12.15;;
76540;SDS011;65385;55.772;37.658;2023-04-01T00:43:03;23.65;;;11.35;;
76540;SDS011;65385;55.772;37.658;2023-04-01T00:44:20;23.73;;;12.45;;
76540;SDS011;65385;55.772;37.658;2023-04-01T00:46:33;27.17;;;12.23;;
76540;SDS011;65385;55.772;37.658;2023-04-01T00:47:35;24.92;;;11.80;;
76540;SDS011;65385;55.772;37.658;2023-04-01T00:48:38;23.52;;;11.90;;
76540;SDS011;65385;55.772;37.658;2023-04-01T00:49:42;24.55;;;11.68;;
76540;SDS011;65385;55.772;37.658;2023-04-01T00:50:47;23.02;;;11.52;;
76540;SDS011;65385;55.772;37.658;2023-04-01T00:51:53;28.13;;;12.10;;
76540;SDS011;65385;55.772;37.658;2023-04-01T00:52:55;25.73;;;11.95;;
76540;SDS011;65385;55.772;37.658;2023-04-01T00:53:57;22.98;;;9.85;;
76540;SDS011;65385;55.772;37.658;2023-04-01T00:55:01;25.98;;;11.68;;
76540;SDS011;65385;55.772;37.658;2023-04-01T00:56:07;24.52;;;12.52;;
76540;SDS011;65385;55.772;37.658;2023-04-01T00:57:19;25.60;;;11.18;;
76540;SDS011;65385;55.772;37.658;2023-04-01T00:58:25;28.20;;;11.95;;
76540;SDS011;65385;55.772;37.658;2023-04-01T00:59:30;24.05;;;11.65;;
76540;SDS011;65385;55.772;37.658;2023-04-01T01:00:34;24.65;;;11.38;;
76540;SDS011;65385;55.772;37.658;2023-04-01T01:01:36;24.50;;;11.63;;
76540;SDS011;65385;55.772;37.658;2023-04-01T01:02:37;24.00;;;12.02;;
76540;SDS011;65385;55.772;37.658;2023-04-01T01:03:38;23.05;;;12.80;;
76540;SDS011;65385;55.772;37.658;2023-04-01T01:04:39;24.52;;;11.50;;
76540;SDS011;65385;55.772;37.658;2023-04-01T01:06:49;26.83;;;12.57;;
76540;SDS011;65385;55.772;37.658;2023-04-01T01:10:39;21.35;;;11.43;;
76540;SDS011;65385;55.772;37.658;2023-04-01T01:11:42;25.77;;;11.00;;
76540;SDS011;65385;55.772;37.658;2023-04-01T01:15:30;26.85;;;11.13;;
76540;SDS011;65385;55.772;37.658;2023-04-01T01:16:38;26.52;;;11.95;;
76540;SDS011;65385;55.772;37.658;2023-04-01T01:17:55;22.63;;;11.35;;
76540;SDS011;65385;55.772;37.658;2023-04-01T01:26:12;28.88;;;14.25;;
76540;SDS011;65385;55.772;37.658;2023-04-01T01:27:21;25.55;;;10.55;;
76540;SDS011;65385;55.772;37.658;2023-04-01T01:28:29;27.58;;;11.45;;
76540;SDS011;65385;55.772;37.658;2023-04-01T01:36:26;25.05;;;11.48;;
76540;SDS011;65385;55.772;37.658;2023-04-01T01:37:32;24.45;;;10.95;;
76540;SDS011;65385;55.772;37.658;2023-04-01T01:38:34;22.60;;;10.77;;
76540;SDS011;65385;55.772;37.658;2023-04-01T01:39:38;24.13;;;10.77;;
76540;SDS011;65385;55.772;37.658;2023-04-01T01:40:42;24.08;;;11.25;;
76540;SDS011;65385;55.772;37.658;2023-04-01T01:41:45;26.35;;;12.05;;
76540;SDS011;65385;55.772;37.658;2023-04-01T01:42:50;25.63;;;10.82;;
76540;SDS011;65385;55.772;37.658;2023-04-01T01:43:55;25.40;;;11.68;;
76540;SDS011;65385;55.772;37.658;2023-04-01T01:44:58;28.15;;;13.23;;
76540;SDS011;65385;55.772;37.658;2023-04-01T01:46:03;29.38;;;13.10;;
76540;SDS011;65385;55.772;37.658;2023-04-01T01:47:09;27.50;;;12.10;;
76540;SDS011;65385;55.772;37.658;2023-04-01T01:48:11;27.35;;;12.00;;
76540;SDS011;65385;55.772;37.658;2023-04-01T01:49:12;25.45;;;12.30;;
76540;SDS011;65385;55.772;37.658;2023-04-01T01:50:14;24.17;;;11.70;;
76540;SDS011;65385;55.772;37.658;2023-04-01T01:51:16;21.95;;;10.30;;
76540;SDS011;65385;55.772;37.658;2023-04-01T01:52:19;22.70;;;11.02;;
76540;SDS011;65385;55.772;37.658;2023-04-01T01:53:19;25.42;;;11.57;;
76540;SDS011;65385;55.772;37.658;2023-04-01T01:54:20;23.58;;;10.38;;
76540;SDS011;65385;55.772;37.658;2023-04-01T01:55:24;24.40;;;11.32;;
76540;SDS011;65385;55.772;37.658;2023-04-01T01:56:28;24.60;;;10.98;;
76540;SDS011;65385;55.772;37.658;2023-04-01T01:57:31;23.98;;;10.88;;
76540;SDS011;65385;55.772;37.658;2023-04-01T01:58:45;23.92;;;11.00;;
76540;SDS011;65385;55.772;37.658;2023-04-01T01:59:52;24.88;;;10.85;;
76540;SDS011;65385;55.772;37.658;2023-04-01T02:01:02;23.02;;;10.52;;
76540;SDS011;65385;55.772;37.658;2023-04-01T02:02:05;22.58;;;10.98;;
76540;SDS011;65385;55.772;37.658;2023-04-01T02:03:08;22.30;;;11.45;;
76540;SDS011;65385;55.772;37.658;2023-04-01T02:04:11;22.42;;;10.88;;
76540;SDS011;65385;55.772;37.658;2023-04-01T02:05:16;21.00;;;10.20;;
76540;SDS011;65385;55.772;37.658;2023-04-01T02:06:21;27.58;;;12.65;;
76540;SDS011;65385;55.772;37.658;2023-04-01T02:07:25;21.98;;;11.25;;
76540;SDS011;65385;55.772;37.658;2023-04-01T02:08:33;25.85;;;12.50;;
76540;SDS011;65385;55.772;37.658;2023-04-01T02:09:37;24.55;;;10.98;;
76540;SDS011;65385;55.772;37.658;2023-04-01T02:10:39;23.63;;;10.63;;
76540;SDS011;65385;55.772;37.658;2023-04-01T02:11:45;24.20;;;11.60;;
76540;SDS011;65385;55.772;37.658;2023-04-01T02:12:50;22.33;;;11.23;;
76540;SDS011;65385;55.772;37.658;2023-04-01T02:13:55;22.30;;;10.05;;
76540;SDS011;65385;55.772;37.658;2023-04-01T02:15:09;25.85;;;11.77;;
76540;SDS011;65385;55.772;37.658;2023-04-01T02:16:17;25.75;;;10.75;;
76540;SDS011;65385;55.772;37.658;2023-04-01T02:17:23;23.95;;;10.23;;
76540;SDS011;65385;55.772;37.658;2023-04-01T02:18:27;20.55;;;10.10;;
76540;SDS011;65385;55.772;37.658;2023-04-01T02:19:31;20.40;;;9.85;;
76540;SDS011;65385;55.772;37.658;2023-04-01T02:20:36;17.92;;;9.07;;
76540;SDS011;65385;55.772;37.658;2023-04-01T02:21:38;22.27;;;9.63;;
76540;SDS011;65385;55.772;37.658;2023-04-01T02:22:41;22.70;;;10.80;;
76540;SDS011;65385;55.772;37.658;2023-04-01T02:23:47;20.02;;;9.98;;
76540;SDS011;65385;55.772;37.658;2023-04-01T02:24:50;20.85;;;10.70;;
76540;SDS011;65385;55.772;37.658;2023-04-01T02:25:54;20.98;;;9.75;;
76540;SDS011;65385;55.772;37.658;2023-04-01T02:26:55;20.63;;;10.10;;
76540;SDS011;65385;55.772;37.658;2023-04-01T02:27:56;19.17;;;9.00;;
76540;SDS011;65385;55.772;37.658;2023-04-01T02:28:58;19.52;;;9.70;;
76540;SDS011;65385;55.772;37.658;2023-04-01T02:30:00;21.83;;;10.07;;
76540;SDS011;65385;55.772;37.658;2023-04-01T02:31:00;23.13;;;11.45;;
76540;SDS011;65385;55.772;37.658;2023-04-01T02:32:02;19.63;;;9.85;;
76540;SDS011;65385;55.772;37.658;2023-04-01T02:33:05;22.58;;;10.90;;
76540;SDS011;65385;55.772;37.658;2023-04-01T02:34:06;23.73;;;11.00;;
76540;SDS011;65385;55.772;37.658;2023-04-01T02:35:10;22.92;;;9.73;;
76540;SDS011;65385;55.772;37.658;2023-04-01T02:36:13;19.85;;;10.05;;
76540;SDS011;65385;55.772;37.658;2023-04-01T02:37:15;22.42;;;10.82;;
76540;SDS011;65385;55.772;37.658;2023-04-01T02:38:16;19.40;;;9.55;;
76540;SDS011;65385;55.772;37.658;2023-04-01T02:39:17;20.25;;;10.07;;
76540;SDS011;65385;55.772;37.658;2023-04-01T02:40:18;20.23;;;10.85;;
76540;SDS011;65385;55.772;37.658;2023-04-01T02:41:19;24.52;;;10.63;;
76540;SDS011;65385;55.772;37.658;2023-04-01T02:42:21;22.77;;;10.13;;
76540;SDS011;65385;55.772;37.658;2023-04-01T02:43:23;20.58;;;10.27;;
76540;SDS011;65385;55.772;37.658;2023-04-01T02:44:23;20.23;;;8.88;;
76540;SDS011;65385;55.772;37.658;2023-04-01T02:45:24;20.63;;;10.07;;
76540;SDS011;65385;55.772;37.658;2023-04-01T02:46:25;20.05;;;10.02;;
76540;SDS011;65385;55.772;37.658;2023-04-01T02:47:25;21.67;;;10.52;;
76540;SDS011;65385;55.772;37.658;2023-04-01T02:48:26;21.52;;;9.82;;
76540;SDS011;65385;55.772;37.658;2023-04-01T02:49:27;24.17;;;11.27;;
76540;SDS011;65385;55.772;37.658;2023-04-01T02:50:27;19.63;;;9.88;;
76540;SDS011;65385;55.772;37.658;2023-04-01T02:51:28;24.05;;;10.80;;
76540;SDS011;65385;55.772;37.658;2023-04-01T02:52:28;19.77;;;9.98;;
76540;SDS011;65385;55.772;37.658;2023-04-01T02:53:31;21.42;;;11.02;;
76540;SDS011;65385;55.772;37.658;2023-04-01T02:54:31;21.88;;;11.05;;
76540;SDS011;65385;55.772;37.658;2023-04-01T02:55:32;23.13;;;11.27;;
76540;SDS011;65385;55.772;37.658;2023-04-01T02:56:33;22.48;;;10.55;;
76540;SDS011;65385;55.772;37.658;2023-04-01T02:57:34;21.05;;;10.45;;
76540;SDS011;65385;55.772;37.658;2023-04-01T02:58:35;25.30;;;11.82;;
76540;SDS011;65385;55.772;37.658;2023-04-01T02:59:35;21.40;;;11.45;;
76540;SDS011;65385;55.772;37.658;2023-04-01T03:00:36;22.63;;;10.32;;
76540;SDS011;65385;55.772;37.658;2023-04-01T03:01:37;22.98;;;10.77;;
76540;SDS011;65385;55.772;37.658;2023-04-01T03:02:38;24.88;;;11.43;;
76540;SDS011;65385;55.772;37.658;2023-04-01T03:03:39;27.42;;;10.45;;
76540;SDS011;65385;55.772;37.658;2023-04-01T03:04:40;22.02;;;10.93;;
76540;SDS011;65385;55.772;37.658;2023-04-01T03:05:40;20.80;;;10.32;;
76540;SDS011;65385;55.772;37.658;2023-04-01T03:06:41;22.88;;;10.85;;
76540;SDS011;65385;55.772;37.658;2023-04-01T03:07:41;24.08;;;11.15;;
76540;SDS011;65385;55.772;37.658;2023-04-01T03:08:42;23.23;;;10.88;;
76540;SDS011;65385;55.772;37.658;2023-04-01T03:09:43;21.98;;;10.90;;
76540;SDS011;65385;55.772;37.658;2023-04-01T03:10:44;23.25;;;11.50;;
76540;SDS011;65385;55.772;37.658;2023-04-01T03:11:45;23.90;;;10.70;;
76540;SDS011;65385;55.772;37.658;2023-04-01T03:12:45;23.75;;;10.27;;
76540;SDS011;65385;55.772;37.658;2023-04-01T03:13:46;22.13;;;10.73;;
76540;SDS011;65385;55.772;37.658;2023-04-01T03:14:47;21.92;;;11.23;;
76540;SDS011;65385;55.772;37.658;2023-04-01T03:15:48;23.17;;;11.45;;
76540;SDS011;65385;55.772;37.658;2023-04-01T03:16:48;20.27;;;10.65;;
76540;SDS011;65385;55.772;37.658;2023-04-01T03:17:49;22.10;;;10.35;;
76540;SDS011;65385;55.772;37.658;2023-04-01T03:18:50;22.58;;;10.57;;
76540;SDS011;65385;55.772;37.658;2023-04-01T03:19:52;20.85;;;11.13;;
76540;SDS011;65385;55.772;37.658;2023-04-01T03:20:53;24.60;;;11.40;;
76540;SDS011;65385;55.772;37.658;2023-04-01T03:21:54;19.63;;;10.20;;
76540;SDS011;65385;55.772;37.658;2023-04-01T03:22:56;24.60;;;12.40;;
76540;SDS011;65385;55.772;37.658;2023-04-01T03:23:56;25.20;;;12.30;;
76540;SDS011;65385;55.772;37.658;2023-04-01T03:24:57;25.25;;;10.98;;
76540;SDS011;65385;55.772;37.658;2023-04-01T03:25:58;22.15;;;10.55;;
76540;SDS011;65385;55.772;37.658;2023-04-01T03:26:58;19.48;;;9.27;;
76540;SDS011;65385;55.772;37.658;2023-04-01T03:27:59;21.98;;;10.88;;
76540;SDS011;65385;55.772;37.658;2023-04-01T03:29:00;23.08;;;10.57;;
76540;SDS011;65385;55.772;37.658;2023-04-01T03:30:02;20.52;;;10.07;;
76540;SDS011;65385;55.772;37.658;2023-04-01T03:31:05;21.55;;;10.18;;
76540;SDS011;65385;55.772;37.658;2023-04-01T03:32:13;21.98;;;10.82;;
76540;SDS011;65385;55.772;37.658;2023-04-01T03:33:13;19.98;;;9.70;;
76540;SDS011;65385;55.772;37.658;2023-04-01T03:34:14;20.33;;;9.98;;
76540;SDS011;65385;55.772;37.658;2023-04-01T03:35:15;22.90;;;10.50;;
76540;SDS011;65385;55.772;37.658;2023-04-01T03:36:16;24.17;;;11.18;;
76540;SDS011;65385;55.772;37.658;2023-04-01T03:37:18;22.98;;;10.70;;
76540;SDS011;65385;55.772;37.658;2023-04-01T03:38:18;21.77;;;10.95;;
76540;SDS011;65385;55.772;37.658;2023-04-01T03:39:19;21.25;;;10.02;;
76540;SDS011;65385;55.772;37.658;2023-04-01T03:40:20;21.75;;;9.77;;
76540;SDS011;65385;55.772;37.658;2023-04-01T03:41:21;21.88;;;9.88;;
76540;SDS011;65385;55.772;37.658;2023-04-01T03:42:21;23.33;;;10.48;;
76540;SDS011;65385;55.772;37.658;2023-04-01T03:43:22;23.95;;;10.38;;
76540;SDS011;65385;55.772;37.658;2023-04-01T03:44:23;20.83;;;9.85;;
76540;SDS011;65385;55.772;37.658;2023-04-01T03:45:26;21.50;;;10.15;;
76540;SDS011;65385;55.772;37.658;2023-04-01T03:46:27;20.17;;;10.02;;
76540;SDS011;65385;55.772;37.658;2023-04-01T03:47:28;24.92;;;11.05;;
76540;SDS011;65385;55.772;37.658;2023-04-01T03:48:28;18.70;;;9.85;;
76540;SDS011;65385;55.772;37.658;2023-04-01T03:49:29;20.45;;;9.88;;
76540;SDS011;65385;55.772;37.658;2023-04-01T03:50:30;21.73;;;9.27;;
76540;SDS011;65385;55.772;37.658;2023-04-01T03:51:30;19.75;;;9.63;;
76540;SDS011;65385;55.772;37.658;2023-04-01T03:52:31;20.30;;;10.00;;
76540;SDS011;65385;55.772;37.658;2023-04-01T03:53:32;17.92;;;9.38;;
76540;SDS011;65385;55.772;37.658;2023-04-01T03:54:35;22.30;;;11.05;;
76540;SDS011;65385;55.772;37.658;2023-04-01T03:55:36;23.42;;;11.18;;
76540;SDS011;65385;55.772;37.658;2023-04-01T03:56:37;20.55;;;10.43;;
76540;SDS011;65385;55.772;37.658;2023-04-01T03:57:38;22.75;;;10.25;;
76540;SDS011;65385;55.772;37.658;2023-04-01T03:58:48;22.75;;;10.63;;
76540;SDS011;65385;55.772;37.658;2023-04-01T03:59:49;22.40;;;10.52;;
76540;SDS011;65385;55.772;37.658;2023-04-01T04:00:50;21.10;;;9.90;;
76540;SDS011;65385;55.772;37.658;2023-04-01T04:01:50;22.40;;;10.20;;
76540;SDS011;65385;55.772;37.658;2023-04-01T04:02:51;21.63;;;10.18;;
76540;SDS011;65385;55.772;37.658;2023-04-01T04:03:57;19.50;;;10.40;;
76540;SDS011;65385;55.772;37.658;2023-04-01T04:04:58;19.50;;;10.50;;
76540;SDS011;65385;55.772;37.658;2023-04-01T04:06:01;18.83;;;9.98;;
76540;SDS011;65385;55.772;37.658;2023-04-01T04:07:02;20.95;;;10.90;;
76540;SDS011;65385;55.772;37.658;2023-04-01T04:08:07;22.00;;;11.13;;
76540;SDS011;65385;55.772;37.658;2023-04-01T04:09:08;21.60;;;11.55;;
76540;SDS011;65385;55.772;37.658;2023-04-01T04:10:08;23.85;;;11.25;;
76540;SDS011;65385;55.772;37.658;2023-04-01T04:11:10;23.50;;;10.73;;
76540;SDS011;65385;55.772;37.658;2023-04-01T04:12:14;22.70;;;10.15;;
76540;SDS011;65385;55.772;37.658;2023-04-01T04:13:15;23.45;;;11.63;;
76540;SDS011;65385;55.772;37.658;2023-04-01T04:14:23;19.58;;;9.52;;
76540;SDS011;65385;55.772;37.658;2023-04-01T04:15:23;21.58;;;11.48;;
76540;SDS011;65385;55.772;37.658;2023-04-01T04:16:24;25.58;;;13.25;;
76540;SDS011;65385;55.772;37.658;2023-04-01T04:17:33;21.77;;;10.38;;
76540;SDS011;65385;55.772;37.658;2023-04-01T04:18:33;23.08;;;10.30;;
76540;SDS011;65385;55.772;37.658;2023-04-01T04:19:34;24.17;;;11.43;;
76540;SDS011;65385;55.772;37.658;2023-04-01T04:20:35;19.90;;;9.40;;
76540;SDS011;65385;55.772;37.658;2023-04-01T04:21:36;21.88;;;10.45;;
76540;SDS011;65385;55.772;37.658;2023-04-01T04:22:36;22.13;;;10.30;;
76540;SDS011;65385;55.772;37.658;2023-04-01T04:23:39;23.02;;;10.38;;
76540;SDS011;65385;55.772;37.658;2023-04-01T04:24:39;21.20;;;10.18;;
76540;SDS011;65385;55.772;37.658;2023-04-01T04:25:56;26.17;;;11.48;;
76540;SDS011;65385;55.772;37.658;2023-04-01T04:26:58;24.48;;;11.15;;
76540;SDS011;65385;55.772;37.658;2023-04-01T04:27:59;20.90;;;11.38;;
76540;SDS011;65385;55.772;37.658;2023-04-01T04:28:59;20.52;;;10.07;;
76540;SDS011;65385;55.772;37.658;2023-04-01T04:30:00;19.45;;;9.68;;
76540;SDS011;65385;55.772;37.658;2023-04-01T04:31:01;21.45;;;9.68;;
76540;SDS011;65385;55.772;37.658;2023-04-01T04:32:01;22.13;;;11.20;;
76540;SDS011;65385;55.772;37.658;2023-04-01T04:33:02;24.35;;;11.80;;
76540;SDS011;65385;55.772;37.658;2023-04-01T04:34:03;24.10;;;9.20;;
76540;SDS011;65385;55.772;37.658;2023-04-01T04:35:07;18.98;;;9.60;;
76540;SDS011;65385;55.772;37.658;2023-04-01T04:36:08;20.60;;;9.85;;
76540;SDS011;65385;55.772;37.658;2023-04-01T04:37:09;19.42;;;9.48;;
76540;SDS011;65385;55.772;37.658;2023-04-01T04:38:10;18.17;;;9.07;;
76540;SDS011;65385;55.772;37.658;2023-04-01T04:39:11;19.17;;;8.07;;
76540;SDS011;65385;55.772;37.658;2023-04-01T04:40:14;21.35;;;9.77;;
76540;SDS011;65385;55.772;37.658;2023-04-01T04:41:16;19.67;;;9.50;;
76540;SDS011;65385;55.772;37.658;2023-04-01T04:42:21;21.10;;;8.75;;
76540;SDS011;65385;55.772;37.658;2023-04-01T04:43:22;19.60;;;10.43;;
76540;SDS011;65385;55.772;37.658;2023-04-01T04:44:24;20.23;;;9.18;;
76540;SDS011;65385;55.772;37.658;2023-04-01T04:45:24;20.20;;;9.85;;
76540;SDS011;65385;55.772;37.658;2023-04-01T04:46:28;18.90;;;9.38;;
76540;SDS011;65385;55.772;37.658;2023-04-01T04:47:37;17.98;;;9.05;;
76540;SDS011;65385;55.772;37.658;2023-04-01T04:48:38;16.00;;;8.43;;
76540;SDS011;65385;55.772;37.658;2023-04-01T04:49:39;17.52;;;8.70;;
76540;SDS011;65385;55.772;37.658;2023-04-01T04:50:42;18.73;;;8.80;;
76540;SDS011;65385;55.772;37.658;2023-04-01T04:51:43;17.48;;;8.50;;
76540;SDS011;65385;55.772;37.658;2023-04-01T04:52:44;17.27;;;8.45;;
76540;SDS011;65385;55.772;37.658;2023-04-01T04:53:45;17.60;;;8.77;;
76540;SDS011;65385;55.772;37.658;2023-04-01T04:54:46;16.98;;;9.23;;
76540;SDS011;65385;55.772;37.658;2023-04-01T04:55:47;18.92;;;8.98;;
76540;SDS011;65385;55.772;37.658;2023-04-01T04:57:21;18.63;;;8.27;;
76540;SDS011;65385;55.772;37.658;2023-04-01T04:58:28;17.05;;;8.20;;
76540;SDS011;65385;55.772;37.658;2023-04-01T04:59:28;18.50;;;8.98;;
76540;SDS011;65385;55.772;37.658;2023-04-01T05:00:41;18.38;;;8.80;;
76540;SDS011;65385;55.772;37.658;2023-04-01T05:01:45;21.98;;;9.23;;
76540;SDS011;65385;55.772;37.658;2023-04-01T05:02:45;17.13;;;9.13;;
76540;SDS011;65385;55.772;37.658;2023-04-01T05:03:46;17.50;;;9.00;;
76540;SDS011;65385;55.772;37.658;2023-04-01T05:04:47;19.67;;;8.50;;
76540;SDS011;65385;55.772;37.658;2023-04-01T05:05:48;18.73;;;9.20;;
76540;SDS011;65385;55.772;37.658;2023-04-01T05:06:51;16.65;;;7.95;;
76540;SDS011;65385;55.772;37.658;2023-04-01T05:07:51;16.40;;;7.70;;
76540;SDS011;65385;55.772;37.658;2023-04-01T05:08:53;16.85;;;9.38;;
76540;SDS011;65385;55.772;37.658;2023-04-01T05:09:54;17.55;;;8.50;;
76540;SDS011;65385;55.772;37.658;2023-04-01T05:10:55;16.02;;;7.82;;
76540;SDS011;65385;55.772;37.658;2023-04-01T05:11:55;14.73;;;8.10;;
76540;SDS011;65385;55.772;37.658;2023-04-01T05:12:57;17.20;;;8.55;;
76540;SDS011;65385;55.772;37.658;2023-04-01T05:13:59;16.90;;;8.63;;
76540;SDS011;65385;55.772;37.658;2023-04-01T05:15:00;15.05;;;7.63;;
76540;SDS011;65385;55.772;37.658;2023-04-01T05:16:00;20.95;;;9.27;;
76540;SDS011;65385;55.772;37.658;2023-04-01T05:17:01;17.25;;;8.80;;
76540;SDS011;65385;55.772;37.658;2023-04-01T05:18:02;17.73;;;8.20;;
76540;SDS011;65385;55.772;37.658;2023-04-01T05:19:03;15.95;;;7.95;;
76540;SDS011;65385;55.772;37.658;2023-04-01T05:20:03;16.92;;;8.55;;
76540;SDS011;65385;55.772;37.658;2023-04-01T05:21:06;18.42;;;9.38;;
76540;SDS011;65385;55.772;37.658;2023-04-01T05:22:08;16.90;;;7.65;;
76540;SDS011;65385;55.772;37.658;2023-04-01T05:23:09;19.10;;;8.55;;
76540;SDS011;65385;55.772;37.658;2023-04-01T05:24:10;15.98;;;8.13;;
76540;SDS011;65385;55.772;37.658;2023-04-01T05:25:12;15.40;;;8.50;;
76540;SDS011;65385;55.772;37.658;2023-04-01T05:26:13;18.67;;;8.57;;
76540;SDS011;65385;55.772;37.658;2023-04-01T05:27:14;17.08;;;8.38;;
76540;SDS011;65385;55.772;37.658;2023-04-01T05:28:16;15.65;;;8.15;;
76540;SDS011;65385;55.772;37.658;2023-04-01T05:29:19;18.65;;;9.40;;
76540;SDS011;65385;55.772;37.658;2023-04-01T05:30:24;19.23;;;8.85;;
76540;SDS011;65385;55.772;37.658;2023-04-01T05:31:33;16.67;;;8.18;;
76540;SDS011;65385;55.772;37.658;2023-04-01T05:32:34;17.73;;;8.93;;
76540;SDS011;65385;55.772;37.658;2023-04-01T05:33:34;17.15;;;8.32;;
76540;SDS011;65385;55.772;37.658;2023-04-01T05:34:36;14.88;;;8.77;;
76540;SDS011;65385;55.772;37.658;2023-04-01T05:35:36;16.02;;;8.32;;
76540;SDS011;65385;55.772;37.658;2023-04-01T05:36:38;16.38;;;8.85;;
76540;SDS011;65385;55.772;37.658;2023-04-01T05:37:39;17.77;;;8.88;;
76540;SDS011;65385;55.772;37.658;2023-04-01T05:38:40;17.58;;;8.85;;
76540;SDS011;65385;55.772;37.658;2023-04-01T05:39:44;16.17;;;7.68;;
76540;SDS011;65385;55.772;37.658;2023-04-01T05:40:44;17.85;;;8.57;;
76540;SDS011;65385;55.772;37.658;2023-04-01T05:41:46;16.17;;;8.55;;
76540;SDS011;65385;55.772;37.658;2023-04-01T05:42:46;16.38;;;9.73;;
76540;SDS011;65385;55.772;37.658;2023-04-01T05:43:47;17.60;;;8.50;;
76540;SDS011;65385;55.772;37.658;2023-04-01T05:45:17;15.80;;;9.45;;
76540;SDS011;65385;55.772;37.658;2023-04-01T05:46:36;18.00;;;8.00;;
76540;SDS011;65385;55.772;37.658;2023-04-01T05:47:58;15.27;;;7.47;;
76540;SDS011;65385;55.772;37.658;2023-04-01T05:48:59;15.80;;;8.00;;
76540;SDS011;65385;55.772;37.658;2023-04-01T05:50:01;15.85;;;8.50;;
76540;SDS011;65385;55.772;37.658;2023-04-01T05:51:03;16.02;;;8.27;;
76540;SDS011;65385;55.772;37.658;2023-04-01T05:52:04;16.80;;;8.40;;
76540;SDS011;65385;55.772;37.658;2023-04-01T05:53:07;15.95;;;7.85;;
76540;SDS011;65385;55.772;37.658;2023-04-01T05:54:08;15.20;;;7.88;;
76540;SDS011;65385;55.772;37.658;2023-04-01T05:55:09;14.98;;;8.63;;
76540;SDS011;65385;55.772;37.658;2023-04-01T05:56:10;16.13;;;8.20;;
76540;SDS011;65385;55.772;37.658;2023-04-01T05:57:18;18.70;;;9.13;;
76540;SDS011;65385;55.772;37.658;2023-04-01T05:58:19;16.58;;;9.25;;
76540;SDS011;65385;55.772;37.658;2023-04-01T05:59:21;15.70;;;8.27;;
76540;SDS011;65385;55.772;37.658;2023-04-01T06:00:21;16.15;;;8.10;;
76540;SDS011;65385;55.772;37.658;2023-04-01T06:01:22;16.60;;;8.18;;
76540;SDS011;65385;55.772;37.658;2023-04-01T06:02:23;17.67;;;8.85;;
76540;SDS011;65385;55.772;37.658;2023-04-01T06:03:24;16.13;;;8.73;;
76540;SDS011;65385;55.772;37.658;2023-04-01T06:04:24;20.00;;;8.90;;
76540;SDS011;65385;55.772;37.658;2023-04-01T06:05:28;19.02;;;9.57;;
76540;SDS011;65385;55.772;37.658;2023-04-01T06:06:31;17.42;;;8.68;;
76540;SDS011;65385;55.772;37.658;2023-04-01T06:07:39;20.10;;;8.38;;
76540;SDS011;65385;55.772;37.658;2023-04-01T06:08:40;18.40;;;9.52;;
76540;SDS011;65385;55.772;37.658;2023-04-01T06:09:41;16.85;;;8.63;;
76540;SDS011;65385;55.772;37.658;2023-04-01T06:13:12;16.83;;;8.60;;
76540;SDS011;65385;55.772;37.658;2023-04-01T06:16:04;17.48;;;9.18;;
76540;SDS011;65385;55.772;37.658;2023-04-01T06:21:44;21.70;;;10.15;;
76540;SDS011;65385;55.772;37.658;2023-04-01T06:25:40;16.40;;;8.32;;
76540;SDS011;65385;55.772;37.658;2023-04-01T06:28:39;18.40;;;9.73;;
76540;SDS011;65385;55.772;37.658;2023-04-01T06:32:20;18.73;;;9.48;;
76540;SDS011;65385;55.772;37.658;2023-04-01T06:34:49;20.77;;;11.02;;
76540;SDS011;65385;55.772;37.658;2023-04-01T06:42:32;19.45;;;9.57;;
76540;SDS011;65385;55.772;37.658;2023-04-01T06:47:12;18.65;;;9.52;;
76540;SDS011;65385;55.772;37.658;2023-04-01T06:50:26;20.77;;;9.95;;
76540;SDS011;65385;55.772;37.658;2023-04-01T06:55:39;16.10;;;8.65;;
76540;SDS011;65385;55.772;37.658;2023-04-01T06:57:46;18.60;;;8.68;;
76540;SDS011;65385;55.772;37.658;2023-04-01T06:58:24;19.48;;;10.13;;
76540;SDS011;65385;55.772;37.658;2023-04-01T06:59:30;18.83;;;8.98;;